createdAt,value
2018-07-14T00:01:52.842Z,4.63
2018-07-14T00:04:22.146Z,4.47
2018-07-14T00:06:50.713Z,4.60
2018-07-14T00:09:19.411Z,5.07
2018-07-14T00:11:48.642Z,4.90
2018-07-14T00:14:17.910Z,5.23
2018-07-14T00:16:46.461Z,4.47
2018-07-14T00:19:14.673Z,4.47
2018-07-14T00:21:43.277Z,4.63
2018-07-14T00:24:11.839Z,4.53
2018-07-14T00:26:40.422Z,4.30
2018-07-14T00:29:09.451Z,4.57
2018-07-14T00:31:38.067Z,4.43
2018-07-14T00:34:06.399Z,4.13
2018-07-14T00:36:34.978Z,4.77
2018-07-14T00:39:04.551Z,4.97
2018-07-14T00:41:33.181Z,4.60
2018-07-14T00:44:01.721Z,5.00
2018-07-14T00:46:30.304Z,4.87
2018-07-14T00:48:58.494Z,5.00
2018-07-14T00:51:27.075Z,5.00
2018-07-14T00:53:55.663Z,4.87
2018-07-14T00:56:24.242Z,4.57
2018-07-14T00:58:52.831Z,4.90
2018-07-14T01:01:21.410Z,5.17
2018-07-14T01:03:49.994Z,5.13
2018-07-14T01:06:18.585Z,5.37
2018-07-14T01:08:47.673Z,5.87
2018-07-14T01:11:16.258Z,5.30
2018-07-14T01:13:44.845Z,5.73
2018-07-14T01:16:13.905Z,6.20
2018-07-14T01:18:42.470Z,5.83
2018-07-14T01:21:11.056Z,5.90
2018-07-14T01:23:39.692Z,6.27
2018-07-14T01:26:08.270Z,6.17
2018-07-14T01:28:36.517Z,5.60
2018-07-14T01:31:05.084Z,5.80
2018-07-14T01:33:33.628Z,5.67
2018-07-14T01:36:02.125Z,5.90
2018-07-14T01:38:30.658Z,5.60
2018-07-14T01:40:59.176Z,6.00
2018-07-14T01:43:27.709Z,5.90
2018-07-14T01:45:56.226Z,5.97
2018-07-14T01:48:24.432Z,5.37
2018-07-14T01:50:52.941Z,4.70
2018-07-14T01:53:21.469Z,5.53
2018-07-14T01:55:49.781Z,5.73
2018-07-14T01:58:18.496Z,6.10
2018-07-14T02:00:47.002Z,6.20
2018-07-14T02:03:15.553Z,5.83
2018-07-14T02:05:44.048Z,6.37
2018-07-14T02:08:12.565Z,5.90
2018-07-14T02:10:41.069Z,5.80
2018-07-14T02:13:09.627Z,5.73
2018-07-14T02:15:38.133Z,5.77
2018-07-14T02:18:06.665Z,6.47
2018-07-14T02:20:35.173Z,6.10
2018-07-14T02:23:03.453Z,6.57
2018-07-14T02:25:31.627Z,7.03
2018-07-14T02:27:59.833Z,6.30
2018-07-14T02:30:28.504Z,6.37
2018-07-14T02:32:57.034Z,6.47
2018-07-14T02:35:25.517Z,6.50
2018-07-14T02:37:54.641Z,6.53
2018-07-14T02:40:23.173Z,6.67
2018-07-14T02:42:51.718Z,6.23
2018-07-14T02:45:19.979Z,5.97
2018-07-14T02:47:48.534Z,5.70
2018-07-14T02:50:17.073Z,6.53
2018-07-14T02:52:45.628Z,6.63
2018-07-14T02:55:14.133Z,6.90
2018-07-14T02:57:42.352Z,6.43
2018-07-14T03:00:10.853Z,6.30
2018-07-14T03:02:39.398Z,6.87
2018-07-14T03:05:07.914Z,6.97
2018-07-14T03:07:36.480Z,6.50
2018-07-14T03:10:05.001Z,6.53
2018-07-14T03:12:33.549Z,6.60
2018-07-14T03:15:02.066Z,7.33
2018-07-14T03:17:30.601Z,7.33
2018-07-14T03:19:59.093Z,7.37
2018-07-14T03:22:27.628Z,6.27
2018-07-14T03:24:56.194Z,7.00
2018-07-14T03:27:24.708Z,6.73
2018-07-14T03:29:53.871Z,6.73
2018-07-14T03:32:22.381Z,7.10
2018-07-14T03:34:50.845Z,6.37
2018-07-14T03:37:20.705Z,6.63
2018-07-14T03:39:49.261Z,6.40
2018-07-14T03:42:18.048Z,6.83
2018-07-14T03:44:46.291Z,7.57
2018-07-14T03:47:14.800Z,7.90
2018-07-14T03:49:43.376Z,7.53
2018-07-14T03:52:11.933Z,7.63
2018-07-14T03:54:40.546Z,7.43
2018-07-14T03:57:09.115Z,7.17
2018-07-14T03:59:39.564Z,6.53
2018-07-14T04:02:08.111Z,7.00
2018-07-14T04:04:36.663Z,6.73
2018-07-14T04:07:05.218Z,6.77
2018-07-14T04:09:34.085Z,7.10
2018-07-14T04:12:02.618Z,7.23
2018-07-14T04:14:31.174Z,6.80
2018-07-14T04:17:00.996Z,6.57
2018-07-14T04:19:29.201Z,6.90
2018-07-14T04:21:57.908Z,7.27
2018-07-14T04:24:26.473Z,6.47
2018-07-14T04:26:54.996Z,6.60
2018-07-14T04:29:24.104Z,6.73
2018-07-14T04:31:52.668Z,7.00
2018-07-14T04:34:21.225Z,7.33
2018-07-14T04:36:49.759Z,6.67
2018-07-14T04:39:18.310Z,7.47
2018-07-14T04:41:46.899Z,6.90
2018-07-14T04:44:15.445Z,6.23
2018-07-14T04:46:43.987Z,7.80
2018-07-14T04:49:13.021Z,7.93
2018-07-14T04:51:42.155Z,7.40
2018-07-14T04:54:10.718Z,7.13
2018-07-14T04:56:39.286Z,7.87
2018-07-14T04:59:07.525Z,7.20
2018-07-14T05:01:36.041Z,7.60
2018-07-14T05:04:04.280Z,7.10
2018-07-14T05:06:33.734Z,7.13
2018-07-14T05:09:02.345Z,7.17
2018-07-14T05:11:30.899Z,8.03
2018-07-14T05:14:00.125Z,7.30
2018-07-14T05:16:28.659Z,6.50
2018-07-14T05:18:57.217Z,6.53
2018-07-14T05:21:25.768Z,6.40
2018-07-14T05:23:54.374Z,6.10
2018-07-14T05:26:22.901Z,6.10
2018-07-14T05:28:51.125Z,6.47
2018-07-14T05:31:19.648Z,6.40
2018-07-14T05:33:48.234Z,6.07
2018-07-14T05:36:16.423Z,6.47
2018-07-14T05:38:44.624Z,6.03
2018-07-14T05:41:13.128Z,6.23
2018-07-14T05:43:41.657Z,6.47
2018-07-14T05:46:09.865Z,5.63
2018-07-14T05:48:38.413Z,5.90
2018-07-14T05:51:06.653Z,6.03
2018-07-14T05:53:35.342Z,5.70
2018-07-14T05:56:03.897Z,7.10
2018-07-14T05:58:32.415Z,6.63
2018-07-14T06:01:00.960Z,6.20
2018-07-14T06:03:29.507Z,5.43
2018-07-14T06:05:58.089Z,5.60
2018-07-14T06:08:26.586Z,5.80
2018-07-14T06:10:54.781Z,6.50
2018-07-14T06:13:23.320Z,5.80
2018-07-14T06:15:51.857Z,6.17
2018-07-14T06:18:20.382Z,6.07
2018-07-14T06:20:48.925Z,5.90
2018-07-14T06:23:17.537Z,5.70
2018-07-14T06:25:46.097Z,6.10
2018-07-14T06:28:14.658Z,6.37
2018-07-14T06:30:43.264Z,6.30
2018-07-14T06:33:12.608Z,6.20
2018-07-14T06:35:41.190Z,6.13
2018-07-14T06:38:09.735Z,6.67
2018-07-14T06:40:38.366Z,7.00
2018-07-14T06:43:07.652Z,5.87
2018-07-14T06:45:36.238Z,6.03
2018-07-14T06:48:04.783Z,6.33
2018-07-14T06:50:34.293Z,6.53
2018-07-14T06:53:03.027Z,6.43
2018-07-14T06:55:31.660Z,5.97
2018-07-14T06:58:00.227Z,5.90
2018-07-14T07:00:29.276Z,5.37
2018-07-14T07:02:57.834Z,5.90
2018-07-14T07:05:26.390Z,5.60
2018-07-14T07:07:54.920Z,5.40
2018-07-14T07:10:23.480Z,5.77
2018-07-14T07:12:52.022Z,5.17
2018-07-14T07:15:20.608Z,4.97
2018-07-14T07:17:49.152Z,5.27
2018-07-14T07:20:17.702Z,4.73
2018-07-14T07:22:46.264Z,4.23
2018-07-14T07:25:14.511Z,4.57
2018-07-14T07:27:43.024Z,4.50
2018-07-14T07:30:10.813Z,4.20
2018-07-14T07:32:40.018Z,4.10
2018-07-14T07:35:09.084Z,3.70
2018-07-14T07:37:37.260Z,3.50
2018-07-14T07:40:05.497Z,4.00
2018-07-14T07:42:34.035Z,3.93
2018-07-14T07:45:03.427Z,4.10
2018-07-14T07:47:31.925Z,4.33
2018-07-14T07:50:00.480Z,4.00
2018-07-14T07:52:28.664Z,3.97
2018-07-14T07:54:56.897Z,3.63
2018-07-14T07:57:25.393Z,3.83
2018-07-14T07:59:53.954Z,3.33
2018-07-14T08:02:22.494Z,3.40
2018-07-14T08:04:50.724Z,3.33
2018-07-14T08:07:19.290Z,3.00
2018-07-14T08:09:47.835Z,3.60
2018-07-14T08:12:16.062Z,3.70
2018-07-14T08:14:44.593Z,3.50
2018-07-14T08:17:12.821Z,3.67
2018-07-14T08:19:41.342Z,3.10
2018-07-14T08:22:09.904Z,3.10
2018-07-14T08:24:38.420Z,3.53
2018-07-14T08:27:06.655Z,3.17
2018-07-14T08:29:35.857Z,3.27
2018-07-14T08:32:04.417Z,3.00
2018-07-14T08:34:32.956Z,3.27
2018-07-14T08:37:01.185Z,3.20
2018-07-14T08:39:29.820Z,3.37
2018-07-14T08:41:58.045Z,3.30
2018-07-14T08:44:26.581Z,3.63
2018-07-14T08:46:54.940Z,3.30
2018-07-14T08:49:23.461Z,3.27
2018-07-14T08:51:52.002Z,3.53
2018-07-14T08:54:20.514Z,2.97
2018-07-14T08:56:48.827Z,3.27
2018-07-14T08:59:17.340Z,3.00
2018-07-14T09:01:45.953Z,3.33
2018-07-14T09:04:14.492Z,3.27
2018-07-14T09:06:43.092Z,3.40
2018-07-14T09:09:12.320Z,3.20
2018-07-14T09:11:41.524Z,3.40
2018-07-14T09:14:09.768Z,2.87
2018-07-14T09:16:38.529Z,3.13
2018-07-14T09:19:07.074Z,3.50
2018-07-14T09:21:35.311Z,3.30
2018-07-14T09:24:04.593Z,3.00
2018-07-14T09:26:33.150Z,3.10
2018-07-14T09:29:01.677Z,2.93
2018-07-14T09:31:30.295Z,3.20
2018-07-14T09:33:58.509Z,3.20
2018-07-14T09:36:27.872Z,2.77
2018-07-14T09:38:57.121Z,2.97
2018-07-14T09:41:25.673Z,2.93
2018-07-14T09:43:54.269Z,2.90
2018-07-14T09:46:22.809Z,3.10
2018-07-14T09:48:51.902Z,3.17
2018-07-14T09:51:21.410Z,3.10
2018-07-14T09:53:51.476Z,2.83
2018-07-14T09:56:19.988Z,3.00
2018-07-14T09:58:49.098Z,3.13
2018-07-14T10:01:17.601Z,3.33
2018-07-14T10:03:47.101Z,2.87
2018-07-14T10:06:15.795Z,3.20
2018-07-14T10:08:43.914Z,3.10
2018-07-14T10:11:12.457Z,3.13
2018-07-14T10:13:41.019Z,3.07
2018-07-14T10:16:10.265Z,3.63
2018-07-14T10:18:39.652Z,2.90
2018-07-14T10:21:07.841Z,3.37
2018-07-14T10:23:36.409Z,3.27
2018-07-14T10:26:05.249Z,3.37
2018-07-14T10:28:33.800Z,3.20
2018-07-14T10:31:02.320Z,2.83
2018-07-14T10:33:30.895Z,3.40
2018-07-14T10:35:59.461Z,2.97
2018-07-14T10:38:27.986Z,3.00
2018-07-14T10:40:56.933Z,2.80
2018-07-14T10:43:25.521Z,3.20
2018-07-14T10:45:54.037Z,2.97
2018-07-14T10:48:22.577Z,3.30
2018-07-14T10:50:51.100Z,3.10
2018-07-14T10:53:19.655Z,2.97
2018-07-14T10:55:48.170Z,2.90
2018-07-14T10:58:16.785Z,3.00
2018-07-14T11:00:45.245Z,2.97
2018-07-14T11:03:14.111Z,3.50
2018-07-14T11:05:42.641Z,2.97
2018-07-14T11:08:10.860Z,2.97
2018-07-14T11:10:39.364Z,3.03
2018-07-14T11:13:07.946Z,3.60
2018-07-14T11:15:36.512Z,3.27
2018-07-14T11:18:05.050Z,3.40
2018-07-14T11:20:33.692Z,3.43
2018-07-14T11:23:02.284Z,3.13
2018-07-14T11:25:30.846Z,3.50
2018-07-14T11:27:59.383Z,3.40
2018-07-14T11:30:27.941Z,3.77
2018-07-14T11:32:56.518Z,3.67
2018-07-14T11:35:25.077Z,3.47
2018-07-14T11:37:53.682Z,3.67
2018-07-14T11:40:22.214Z,3.60
2018-07-14T11:42:50.758Z,3.50
2018-07-14T11:45:19.328Z,3.33
2018-07-14T11:47:47.938Z,2.93
2018-07-14T11:50:16.460Z,3.67
2018-07-14T11:52:44.681Z,3.33
2018-07-14T11:55:13.254Z,3.57
2018-07-14T11:57:41.835Z,3.70
2018-07-14T12:00:10.395Z,3.90
2018-07-14T12:02:38.985Z,3.27
2018-07-14T12:05:07.164Z,3.40
2018-07-14T12:07:36.090Z,3.10
2018-07-14T12:10:05.229Z,3.23
2018-07-14T12:12:33.456Z,3.63
2018-07-14T12:15:02.037Z,3.50
2018-07-14T12:17:30.942Z,3.43
2018-07-14T12:19:59.461Z,3.50
2018-07-14T12:22:28.147Z,3.33
2018-07-14T12:24:56.688Z,3.20
2018-07-14T12:27:25.298Z,3.00
2018-07-14T12:29:54.489Z,3.10
2018-07-14T12:32:23.241Z,3.40
2018-07-14T12:34:51.820Z,3.40
2018-07-14T12:37:20.370Z,3.00
2018-07-14T12:39:49.128Z,3.17
2018-07-14T12:42:17.681Z,3.17
2018-07-14T12:44:46.244Z,3.23
2018-07-14T12:47:15.425Z,3.43
2018-07-14T12:49:43.990Z,3.20
2018-07-14T12:52:12.574Z,3.50
2018-07-14T12:54:41.158Z,3.30
2018-07-14T12:57:09.693Z,3.23
2018-07-14T12:59:39.604Z,3.43
2018-07-14T13:02:08.144Z,3.10
2018-07-14T13:04:36.713Z,2.90
2018-07-14T13:07:05.362Z,3.60
2018-07-14T13:09:33.939Z,3.67
2018-07-14T13:12:02.512Z,3.37
2018-07-14T13:14:30.713Z,3.47
2018-07-14T13:17:00.114Z,3.63
2018-07-14T13:19:28.682Z,3.60
2018-07-14T13:21:57.273Z,3.13
2018-07-14T13:24:25.831Z,3.33
2018-07-14T13:26:54.358Z,3.80
2018-07-14T13:29:22.948Z,3.70
2018-07-14T13:31:51.508Z,3.23
2018-07-14T13:34:20.069Z,3.57
2018-07-14T13:36:48.705Z,3.67
2018-07-14T13:39:17.298Z,3.63
2018-07-14T13:41:46.602Z,3.03
2018-07-14T13:44:15.836Z,3.10
2018-07-14T13:46:44.344Z,3.40
2018-07-14T13:49:12.917Z,3.73
2018-07-14T13:51:41.145Z,3.93
2018-07-14T13:54:09.721Z,2.87
2018-07-14T13:56:38.431Z,3.07
2018-07-14T13:59:07.025Z,3.73
2018-07-14T14:01:35.564Z,3.47
2018-07-14T14:04:04.158Z,3.30
2018-07-14T14:06:33.422Z,3.23
2018-07-14T14:09:01.662Z,3.20
2018-07-14T14:11:30.218Z,3.07
2018-07-14T14:13:58.785Z,3.10
2018-07-14T14:16:27.317Z,3.30
2018-07-14T14:18:55.882Z,2.90
2018-07-14T14:21:24.456Z,3.27
2018-07-14T14:23:53.039Z,3.50
2018-07-14T14:26:21.549Z,2.87
2018-07-14T14:28:50.430Z,3.40
2018-07-14T14:31:18.950Z,3.40
2018-07-14T14:33:47.511Z,3.60
2018-07-14T14:36:16.677Z,3.40
2018-07-14T14:38:45.852Z,3.40
2018-07-14T14:41:14.409Z,4.87
2018-07-14T14:43:43.490Z,3.17
2018-07-14T14:46:12.030Z,2.80
2018-07-14T14:48:40.721Z,3.10
2018-07-14T14:51:09.628Z,3.27
2018-07-14T14:53:38.149Z,3.17
2018-07-14T14:56:07.335Z,3.27
2018-07-14T14:58:35.903Z,3.27
2018-07-14T15:01:04.493Z,3.23
2018-07-14T15:03:33.053Z,3.17
2018-07-14T15:06:01.609Z,3.03
2018-07-14T15:08:30.141Z,3.10
2018-07-14T15:10:58.885Z,2.97
2018-07-14T15:13:28.119Z,2.90
2018-07-14T15:15:56.663Z,3.47
2018-07-14T15:18:25.214Z,3.40
2018-07-14T15:20:54.396Z,7.30
2018-07-14T15:23:22.975Z,3.17
2018-07-14T15:25:52.121Z,3.10
2018-07-14T15:28:21.525Z,3.70
2018-07-14T15:30:50.814Z,3.20
2018-07-14T15:33:19.190Z,3.20
2018-07-14T15:35:47.732Z,3.33
2018-07-14T15:38:16.270Z,3.40
2018-07-14T15:40:44.854Z,3.37
2018-07-14T15:43:14.368Z,3.07
2018-07-14T15:45:42.941Z,3.10
2018-07-14T15:48:11.489Z,3.30
2018-07-14T15:50:40.054Z,3.17
2018-07-14T15:53:08.561Z,2.70
2018-07-14T15:55:37.737Z,3.23
2018-07-14T15:58:06.758Z,3.00
2018-07-14T16:00:35.877Z,3.07
2018-07-14T16:03:04.508Z,2.93
2018-07-14T16:05:33.041Z,3.00
2018-07-14T16:08:01.637Z,3.30
2018-07-14T16:10:30.669Z,3.77
2018-07-14T16:12:59.799Z,3.50
2018-07-14T16:15:28.654Z,3.37
2018-07-14T16:17:57.242Z,3.00
2018-07-14T16:20:26.267Z,3.80
2018-07-14T16:22:55.816Z,3.20
2018-07-14T16:25:24.352Z,2.80
2018-07-14T16:27:52.925Z,3.07
2018-07-14T16:30:22.399Z,3.20
2018-07-14T16:32:50.997Z,3.87
2018-07-14T16:35:19.566Z,2.63
2018-07-14T16:37:48.144Z,4.20
2018-07-14T16:40:16.698Z,3.20
2018-07-14T16:42:45.312Z,3.70
2018-07-14T16:45:13.878Z,3.13
2018-07-14T16:47:42.064Z,2.93
2018-07-14T16:50:10.329Z,2.97
2018-07-14T16:52:38.848Z,2.70
2018-07-14T16:55:07.457Z,2.83
2018-07-14T16:57:37.118Z,2.90
2018-07-14T17:00:05.774Z,2.90
2018-07-14T17:02:34.732Z,3.00
2018-07-14T17:05:03.269Z,3.40
2018-07-14T17:07:31.528Z,2.90
2018-07-14T17:10:00.174Z,3.13
2018-07-14T17:12:28.721Z,3.00
2018-07-14T17:14:57.245Z,2.90
2018-07-14T17:17:25.790Z,2.80
2018-07-14T17:19:53.978Z,2.97
2018-07-14T17:22:23.094Z,3.33
2018-07-14T17:24:52.360Z,3.17
2018-07-14T17:27:20.574Z,2.63
2018-07-14T17:29:49.109Z,2.57
2018-07-14T17:32:17.330Z,3.60
2018-07-14T17:34:45.907Z,2.60
2018-07-14T17:37:14.448Z,2.60
2018-07-14T17:39:42.935Z,3.30
2018-07-14T17:42:11.518Z,3.30
2018-07-14T17:44:40.043Z,2.80
2018-07-14T17:47:08.634Z,2.80
2018-07-14T17:49:37.138Z,3.80
2018-07-14T17:52:05.868Z,4.07
2018-07-14T17:54:34.275Z,4.13
2018-07-14T17:57:03.502Z,4.00
2018-07-14T17:59:32.016Z,8.37
2018-07-14T18:02:00.233Z,3.90
2018-07-14T18:04:28.745Z,4.50
2018-07-14T18:06:57.285Z,4.40
2018-07-14T18:09:25.776Z,4.73
2018-07-14T18:11:54.389Z,3.73
2018-07-14T18:14:22.898Z,4.10
2018-07-14T18:16:51.481Z,4.27
2018-07-14T18:19:20.001Z,5.27
2018-07-14T18:21:48.566Z,4.20
2018-07-14T18:24:16.975Z,3.53
2018-07-14T18:26:45.510Z,3.60
2018-07-14T18:29:14.065Z,3.50
2018-07-14T18:31:42.615Z,3.60
2018-07-14T18:34:11.179Z,3.80
2018-07-14T18:36:39.718Z,3.87
2018-07-14T18:39:08.927Z,3.83
2018-07-14T18:41:37.598Z,4.77
2018-07-14T18:44:06.183Z,3.37
2018-07-14T18:46:34.710Z,3.87
2018-07-14T18:49:03.302Z,4.27
2018-07-14T18:51:31.537Z,3.80
2018-07-14T18:54:00.849Z,3.83
2018-07-14T18:56:29.385Z,3.83
2018-07-14T18:58:57.967Z,3.77
2018-07-14T19:01:26.500Z,3.80
2018-07-14T19:03:55.060Z,3.93
2018-07-14T19:06:23.617Z,3.20
2018-07-14T19:08:52.194Z,3.40
2018-07-14T19:11:20.732Z,3.70
2018-07-14T19:13:49.397Z,3.53
2018-07-14T19:16:17.955Z,3.40
2018-07-14T19:18:46.998Z,3.50
2018-07-14T19:21:15.529Z,3.60
2018-07-14T19:23:44.080Z,4.00
2018-07-14T19:26:12.695Z,3.87
2018-07-14T19:28:41.165Z,4.00
2018-07-14T19:31:10.246Z,3.97
2018-07-14T19:33:40.282Z,3.80
2018-07-14T19:36:08.465Z,5.23
2018-07-14T19:38:37.526Z,4.33
2018-07-14T19:41:06.045Z,4.00
2018-07-14T19:43:34.241Z,4.00
2018-07-14T19:46:03.645Z,3.80
2018-07-14T19:48:32.890Z,3.70
2018-07-14T19:51:01.482Z,4.43
2018-07-14T19:53:30.024Z,4.40
2018-07-14T19:55:58.669Z,3.60
2018-07-14T19:58:27.119Z,6.83
2018-07-14T20:00:55.671Z,6.90
2018-07-14T20:03:24.208Z,3.60
2018-07-14T20:05:53.514Z,4.03
2018-07-14T20:08:22.030Z,3.73
2018-07-14T20:10:51.527Z,3.63
2018-07-14T20:13:20.038Z,3.87
2018-07-14T20:15:48.589Z,3.77
2018-07-14T20:18:17.087Z,3.80
2018-07-14T20:20:45.660Z,3.20
2018-07-14T20:23:14.254Z,3.70
2018-07-14T20:25:43.978Z,3.60
2018-07-14T20:28:12.510Z,3.03
2018-07-14T20:30:41.574Z,3.57
2018-07-14T20:33:10.108Z,4.07
2018-07-14T20:35:39.958Z,3.60
2018-07-14T20:38:08.512Z,4.20
2018-07-14T20:40:37.389Z,4.10
2018-07-14T20:43:05.948Z,3.73
2018-07-14T20:45:35.077Z,5.17
2018-07-14T20:48:04.411Z,5.73
2018-07-14T20:50:32.961Z,5.03
2018-07-14T20:53:01.865Z,4.90
2018-07-14T20:55:30.405Z,7.20
2018-07-14T20:58:00.043Z,5.13
2018-07-14T21:00:28.262Z,4.50
2018-07-14T21:02:56.817Z,4.30
2018-07-14T21:05:25.577Z,4.37
2018-07-14T21:07:54.089Z,4.47
2018-07-14T21:10:22.678Z,4.70
2018-07-14T21:12:51.178Z,4.03
2018-07-14T21:15:19.748Z,4.30
2018-07-14T21:17:48.306Z,4.00
2018-07-14T21:20:17.260Z,4.27
2018-07-14T21:22:45.793Z,3.87
2018-07-14T21:25:14.332Z,5.20
2018-07-14T21:27:42.822Z,3.70
2018-07-14T21:30:12.100Z,3.77
2018-07-14T21:32:40.621Z,4.40
2018-07-14T21:35:09.156Z,4.73
2018-07-14T21:37:37.660Z,4.73
2018-07-14T21:40:06.307Z,4.67
2018-07-14T21:42:34.763Z,5.10
2018-07-14T21:45:02.986Z,4.07
2018-07-14T21:47:31.496Z,4.70
2018-07-14T21:50:00.067Z,4.50
2018-07-14T21:52:28.589Z,5.03
2018-07-14T21:54:56.810Z,5.10
2018-07-14T21:57:25.347Z,5.37
2018-07-14T21:59:53.666Z,5.47
2018-07-14T22:02:22.365Z,5.23
2018-07-14T22:04:50.953Z,5.07
2018-07-14T22:07:19.593Z,5.50
2018-07-14T22:09:48.115Z,5.40
2018-07-14T22:12:16.634Z,4.70
2018-07-14T22:14:45.286Z,4.97
2018-07-14T22:17:13.850Z,5.07
2018-07-14T22:19:42.359Z,4.90
2018-07-14T22:22:10.933Z,5.17
2018-07-14T22:24:39.481Z,4.97
2018-07-14T22:27:07.705Z,5.03
2018-07-14T22:29:36.216Z,4.97
2018-07-14T22:32:04.807Z,4.90
2018-07-14T22:34:33.341Z,4.93
2018-07-14T22:37:01.903Z,5.20
2018-07-14T22:39:30.414Z,5.00
2018-07-14T22:41:58.997Z,5.23
2018-07-14T22:44:27.528Z,4.90
2018-07-14T22:46:55.735Z,4.73
2018-07-14T22:49:24.276Z,4.93
2018-07-14T22:51:52.816Z,4.80
2018-07-14T22:54:21.354Z,4.80
2018-07-14T22:56:49.583Z,4.53
2018-07-14T22:59:18.099Z,4.10
2018-07-14T23:01:46.661Z,4.80
2018-07-14T23:04:15.183Z,5.10
2018-07-14T23:06:43.401Z,4.47
2018-07-14T23:09:11.940Z,4.60
2018-07-14T23:11:40.159Z,4.50
2018-07-14T23:14:09.495Z,4.30
2018-07-14T23:16:38.078Z,5.00
2018-07-14T23:19:07.951Z,4.47
2018-07-14T23:21:36.978Z,4.93
2018-07-14T23:24:05.614Z,4.57
2018-07-14T23:26:34.145Z,5.00
2018-07-14T23:29:02.889Z,5.30
2018-07-14T23:31:31.441Z,4.53
2018-07-14T23:33:59.966Z,4.80
2018-07-14T23:36:28.506Z,5.00
2018-07-14T23:38:57.032Z,4.83
2018-07-14T23:41:25.621Z,4.70
2018-07-14T23:43:54.410Z,5.47
2018-07-14T23:46:23.121Z,5.70
2018-07-14T23:48:51.646Z,5.60
2018-07-14T23:51:19.891Z,5.20
2018-07-14T23:53:48.534Z,5.80
2018-07-14T23:56:17.814Z,6.07
2018-07-14T23:58:46.318Z,5.67
